Time;durP1;ratioP1;P1;durP2;ratioP2;P2;SDS_P1;SDS_P2;PMS_P1;PMS_P2;Temp;Humidity;BMP_temperature;BMP_pressure;BME280_temperature;BME280_humidity;BME280_pressure;Samples;Min_cycle;Max_cycle;Signal;HPM_P1;HPM_P2
2023/08/10 00:02:18;;;;;;;5.88;1.83;;;20.00;99.90;;;;;;4990980;28;20060;-74
2023/08/10 00:04:44;;;;;;;4.95;1.50;;;20.00;99.90;;;;;;4990090;28;20034;-75
2023/08/10 00:07:10;;;;;;;3.08;1.63;;;20.00;99.90;;;;;;4995735;28;20026;-73
2023/08/10 00:09:36;;;;;;;4.22;1.63;;;20.00;99.90;;;;;;4994671;28;20042;-74
2023/08/10 00:12:02;;;;;;;3.30;1.40;;;20.00;99.90;;;;;;4994110;28;20036;-74
2023/08/10 00:14:27;;;;;;;3.45;1.50;;;20.00;99.90;;;;;;4989399;28;20038;-74
2023/08/10 00:16:53;;;;;;;4.18;2.00;;;20.00;99.90;;;;;;4990062;28;20027;-74
2023/08/10 00:19:19;;;;;;;4.88;1.67;;;20.00;99.90;;;;;;4984845;28;20022;-74
2023/08/10 00:21:45;;;;;;;4.55;1.83;;;20.00;99.90;;;;;;4992854;28;20464;-74
2023/08/10 00:24:10;;;;;;;6.78;2.13;;;19.90;99.90;;;;;;4985635;28;20483;-74
2023/08/10 00:26:36;;;;;;;5.13;1.73;;;19.90;99.90;;;;;;4986100;28;20034;-74
2023/08/10 00:29:02;;;;;;;4.85;1.83;;;19.90;99.90;;;;;;4986332;28;20506;-74
2023/08/10 00:31:27;;;;;;;5.18;1.30;;;19.90;99.90;;;;;;4987866;28;20026;-74
2023/08/10 00:33:53;;;;;;;7.97;1.95;;;20.00;99.90;;;;;;4988558;28;20027;-73
2023/08/10 00:36:19;;;;;;;3.83;1.90;;;20.00;99.90;;;;;;4989891;28;20465;-73
2023/08/10 00:38:44;;;;;;;4.82;1.95;;;19.90;99.90;;;;;;4986983;28;20052;-75
2023/08/10 00:41:10;;;;;;;5.57;1.70;;;19.90;99.90;;;;;;4988021;28;20042;-73
2023/08/10 00:43:36;;;;;;;4.65;1.92;;;19.90;99.90;;;;;;4988080;28;20043;-74
2023/08/10 00:46:02;;;;;;;8.85;2.15;;;19.90;99.90;;;;;;4987146;28;20037;-74
2023/08/10 00:48:28;;;;;;;4.35;1.63;;;19.90;99.90;;;;;;4988432;28;20125;-74
2023/08/10 00:50:54;;;;;;;3.38;1.25;;;19.90;99.90;;;;;;4986441;28;20117;-74
2023/08/10 00:53:21;;;;;;;2.78;1.42;;;19.90;99.90;;;;;;4984254;28;20039;-74
2023/08/10 00:55:51;;;;;;;3.00;1.38;;;19.90;99.90;;;;;;4989602;28;20029;-73
2023/08/10 00:58:21;;;;;;;4.45;1.50;;;19.90;99.90;;;;;;4993136;28;20160;-74
2023/08/10 01:00:47;;;;;;;3.90;1.70;;;19.80;99.90;;;;;;4987209;28;20038;-74
2023/08/10 01:03:14;;;;;;;2.80;1.50;;;19.70;99.90;;;;;;4987235;28;20046;-74
2023/08/10 01:05:57;;;;;;;3.88;1.52;;;19.70;99.90;;;;;;4987660;28;20033;-74
2023/08/10 01:08:32;;;;;;;3.92;1.38;;;19.70;99.90;;;;;;4987670;28;20053;-74
2023/08/10 01:11:21;;;;;;;3.50;1.80;;;19.70;99.90;;;;;;4992929;28;20034;-73
2023/08/10 01:13:59;;;;;;;3.55;1.48;;;19.80;99.90;;;;;;4995053;28;20132;-73
2023/08/10 01:16:26;;;;;;;5.35;1.90;;;19.80;99.90;;;;;;4994026;28;20480;-73
2023/08/10 01:18:54;;;;;;;5.00;1.70;;;19.70;99.90;;;;;;4993425;28;20040;-73
2023/08/10 01:21:49;;;;;;;4.15;1.50;;;19.70;99.90;;;;;;4989902;28;20353;-74
2023/08/10 01:24:40;;;;;;;4.07;1.38;;;19.70;99.90;;;;;;4991779;28;20553;-73
2023/08/10 01:27:07;;;;;;;3.88;1.60;;;19.70;99.90;;;;;;4989698;28;20026;-73
2023/08/10 01:29:32;;;;;;;3.88;1.63;;;19.70;99.90;;;;;;4988898;28;20065;-73
2023/08/10 01:31:58;;;;;;;3.80;1.88;;;19.70;99.90;;;;;;4993742;28;20484;-73
2023/08/10 01:34:24;;;;;;;4.32;1.58;;;19.70;99.90;;;;;;4992180;28;20049;-74
2023/08/10 01:36:50;;;;;;;3.67;1.58;;;19.70;99.90;;;;;;4990204;28;20049;-74
2023/08/10 01:39:16;;;;;;;4.32;1.60;;;19.70;99.90;;;;;;4992380;28;20473;-73
2023/08/10 01:41:41;;;;;;;3.83;1.70;;;19.60;99.90;;;;;;4994458;28;20026;-74
2023/08/10 01:44:07;;;;;;;4.93;1.42;;;19.60;99.90;;;;;;4991640;28;20034;-73
2023/08/10 01:46:38;;;;;;;6.97;2.40;;;19.60;99.90;;;;;;4991778;28;20030;-74
2023/08/10 01:49:08;;;;;;;3.30;1.45;;;19.70;99.90;;;;;;4995605;28;20034;-74
2023/08/10 01:51:37;;;;;;;4.25;1.50;;;19.70;99.90;;;;;;4993370;28;20507;-73
2023/08/10 01:54:06;;;;;;;5.00;1.80;;;19.70;99.90;;;;;;4991927;28;20026;-73
2023/08/10 01:56:32;;;;;;;3.45;1.90;;;19.70;99.90;;;;;;4989158;28;20439;-73
2023/08/10 01:58:58;;;;;;;4.38;1.35;;;19.80;99.90;;;;;;4997454;28;20034;-74
2023/08/10 02:01:23;;;;;;;3.53;1.75;;;19.70;99.90;;;;;;4991793;28;20034;-73
2023/08/10 02:03:49;;;;;;;8.00;2.25;;;19.60;99.90;;;;;;4992211;28;20038;-73
2023/08/10 02:06:15;;;;;;;4.10;2.30;;;19.50;99.90;;;;;;4993516;28;20030;-73
2023/08/10 02:08:40;;;;;;;3.55;1.80;;;19.50;99.90;;;;;;4991553;28;20417;-73
2023/08/10 02:11:06;;;;;;;5.15;1.75;;;19.50;99.90;;;;;;4995683;28;20049;-73
2023/08/10 02:13:31;;;;;;;7.00;2.28;;;19.50;99.90;;;;;;4994515;28;20034;-73
2023/08/10 02:15:57;;;;;;;5.82;1.77;;;19.50;99.90;;;;;;4988737;28;20073;-73
2023/08/10 02:18:23;;;;;;;5.68;1.60;;;19.40;99.90;;;;;;4988286;28;20038;-73
2023/08/10 02:20:49;;;;;;;5.68;1.98;;;19.50;99.90;;;;;;4990051;28;20038;-73
2023/08/10 02:23:14;;;;;;;3.30;1.60;;;19.50;99.90;;;;;;4989981;28;20132;-73
2023/08/10 02:25:40;;;;;;;3.38;1.40;;;19.50;99.90;;;;;;4991418;28;20121;-74
2023/08/10 02:28:06;;;;;;;3.58;1.80;;;19.50;99.90;;;;;;4993622;28;20053;-73
2023/08/10 02:30:31;;;;;;;3.95;1.80;;;19.40;99.90;;;;;;4989491;28;20384;-74
2023/08/10 02:32:57;;;;;;;3.65;1.70;;;19.40;99.90;;;;;;4994580;28;20045;-74
2023/08/10 02:35:23;;;;;;;5.68;1.67;;;19.30;99.90;;;;;;4989956;28;20121;-73
2023/08/10 02:37:49;;;;;;;4.43;1.70;;;19.30;99.90;;;;;;4996134;28;20408;-73
2023/08/10 02:40:15;;;;;;;3.65;1.73;;;19.30;99.90;;;;;;4994788;28;20064;-73
2023/08/10 02:42:42;;;;;;;6.55;1.90;;;19.20;99.90;;;;;;4996773;28;20043;-73
2023/08/10 02:45:08;;;;;;;3.97;1.63;;;19.30;99.90;;;;;;4993887;28;20080;-73
2023/08/10 02:47:34;;;;;;;7.10;2.10;;;19.30;99.90;;;;;;4993912;28;20026;-74
2023/08/10 02:50:00;;;;;;;9.73;1.90;;;19.40;99.90;;;;;;4998668;28;20412;-74
2023/08/10 02:52:26;;;;;;;6.95;1.92;;;19.40;99.90;;;;;;4994844;28;20540;-73
2023/08/10 02:54:51;;;;;;;3.75;2.05;;;19.40;99.90;;;;;;4996118;28;20108;-74
2023/08/10 02:57:17;;;;;;;4.13;1.90;;;19.30;99.90;;;;;;5000167;28;20065;-73
2023/08/10 02:59:42;;;;;;;3.38;1.80;;;19.30;99.90;;;;;;4992574;28;20404;-73
2023/08/10 03:02:08;;;;;;;2.92;1.75;;;19.30;99.90;;;;;;4995186;28;20046;-74
2023/08/10 03:04:34;;;;;;;7.78;2.13;;;19.30;99.90;;;;;;4992659;28;20380;-75
2023/08/10 03:07:01;;;;;;;4.57;2.30;;;19.20;99.90;;;;;;4993117;28;20084;-74
2023/08/10 03:09:26;;;;;;;4.40;1.75;;;19.10;99.90;;;;;;4988796;28;20034;-74
2023/08/10 03:11:52;;;;;;;5.60;1.67;;;19.20;99.90;;;;;;4990763;28;20044;-73
2023/08/10 03:14:18;;;;;;;10.30;2.03;;;19.10;99.90;;;;;;4988662;28;20026;-74
2023/08/10 03:16:44;;;;;;;5.63;2.22;;;19.10;99.90;;;;;;4988908;28;20105;-74
2023/08/10 03:19:10;;;;;;;7.97;2.40;;;19.00;99.90;;;;;;4990675;28;20034;-74
2023/08/10 03:21:35;;;;;;;6.78;2.33;;;19.00;99.90;;;;;;4987135;28;20030;-74
2023/08/10 03:24:02;;;;;;;4.35;2.10;;;19.00;99.90;;;;;;4989916;28;20034;-73
2023/08/10 03:26:27;;;;;;;6.40;1.98;;;19.10;99.90;;;;;;4991187;28;20038;-73
2023/08/10 03:28:53;;;;;;;4.50;1.95;;;19.10;99.90;;;;;;4992488;28;20034;-74
2023/08/10 03:31:19;;;;;;;3.88;2.10;;;19.20;99.90;;;;;;4992261;28;20053;-74
2023/08/10 03:33:44;;;;;;;4.90;2.03;;;19.20;99.90;;;;;;4994774;28;20025;-74
2023/08/10 03:36:10;;;;;;;3.72;1.80;;;19.20;99.90;;;;;;4988338;28;20935;-74
2023/08/10 03:38:36;;;;;;;4.22;1.77;;;19.20;99.90;;;;;;4988724;28;20050;-74
2023/08/10 03:41:01;;;;;;;4.47;1.70;;;19.20;99.90;;;;;;4991380;28;20037;-74
2023/08/10 03:43:27;;;;;;;6.32;2.17;;;19.20;99.90;;;;;;4987711;28;20050;-74
2023/08/10 03:45:53;;;;;;;9.05;2.40;;;19.10;99.90;;;;;;4991381;28;20072;-74
2023/08/10 03:48:19;;;;;;;18.05;2.80;;;19.20;99.90;;;;;;4992342;28;20487;-74
2023/08/10 03:50:45;;;;;;;14.93;2.78;;;19.20;99.90;;;;;;4992132;28;20045;-75
2023/08/10 03:53:10;;;;;;;9.45;2.38;;;19.20;99.90;;;;;;4989364;28;20038;-74
2023/08/10 03:55:36;;;;;;;6.45;2.95;;;19.20;99.90;;;;;;4996446;28;20059;-74
2023/08/10 03:58:02;;;;;;;5.95;2.13;;;19.20;99.90;;;;;;4992203;28;20033;-74
2023/08/10 04:00:28;;;;;;;5.40;1.70;;;19.20;99.90;;;;;;4984325;28;20034;-74
2023/08/10 04:02:53;;;;;;;4.93;1.85;;;19.20;99.90;;;;;;4991561;28;20034;-74
2023/08/10 04:05:20;;;;;;;5.93;2.38;;;19.20;99.90;;;;;;4983692;28;20037;-73
2023/08/10 04:07:45;;;;;;;4.10;2.13;;;19.20;99.90;;;;;;4985421;28;20494;-73
2023/08/10 04:10:11;;;;;;;5.45;2.58;;;19.20;99.90;;;;;;4984986;28;20034;-74
2023/08/10 04:12:38;;;;;;;6.10;2.13;;;19.10;99.90;;;;;;4985381;28;20118;-74
2023/08/10 04:15:06;;;;;;;5.30;1.90;;;19.10;99.90;;;;;;4984173;28;20116;-75
2023/08/10 04:17:32;;;;;;;4.53;2.03;;;19.10;99.90;;;;;;4984635;28;20030;-74
2023/08/10 04:19:57;;;;;;;9.45;2.83;;;19.10;99.90;;;;;;4990299;28;20124;-74
2023/08/10 04:22:24;;;;;;;5.53;2.20;;;19.10;99.90;;;;;;4988641;28;20077;-74
2023/08/10 04:24:50;;;;;;;3.53;1.90;;;19.10;99.90;;;;;;4986565;28;20424;-74
2023/08/10 04:27:18;;;;;;;4.22;2.33;;;19.10;99.90;;;;;;4995004;28;20033;-74
2023/08/10 04:29:45;;;;;;;4.70;1.70;;;19.00;99.90;;;;;;4990656;28;20436;-73
2023/08/10 04:32:12;;;;;;;3.70;1.77;;;19.00;99.90;;;;;;4990641;28;20030;-75
2023/08/10 04:34:39;;;;;;;5.57;1.80;;;19.00;99.90;;;;;;4988290;28;20045;-74
2023/08/10 04:37:04;;;;;;;3.97;1.92;;;19.00;99.90;;;;;;4985247;28;20042;-74
2023/08/10 04:39:30;;;;;;;4.18;1.83;;;19.00;99.90;;;;;;4985424;28;20086;-74
2023/08/10 04:41:56;;;;;;;3.60;1.92;;;18.90;99.90;;;;;;4989526;28;20038;-74
2023/08/10 04:44:22;;;;;;;3.78;1.90;;;18.80;99.90;;;;;;4986264;28;20030;-74
2023/08/10 04:46:47;;;;;;;5.57;2.13;;;18.90;99.90;;;;;;4983684;28;20077;-74
2023/08/10 04:49:13;;;;;;;4.18;1.70;;;19.00;99.90;;;;;;4984948;28;20080;-74
2023/08/10 04:51:39;;;;;;;5.47;2.05;;;19.00;99.90;;;;;;4982391;28;20034;-74
2023/08/10 04:54:04;;;;;;;5.18;2.00;;;19.00;99.90;;;;;;4986874;28;20029;-73
2023/08/10 04:56:30;;;;;;;3.33;1.67;;;19.00;99.90;;;;;;4984361;28;20121;-74
2023/08/10 04:58:56;;;;;;;6.40;2.20;;;19.00;99.90;;;;;;4982931;28;20780;-73
2023/08/10 05:01:23;;;;;;;5.63;2.35;;;19.00;99.90;;;;;;4990714;28;20104;-74
2023/08/10 05:03:48;;;;;;;4.65;2.45;;;19.10;99.90;;;;;;4985461;28;20050;-74
2023/08/10 05:06:14;;;;;;;4.32;1.67;;;19.20;99.90;;;;;;4983981;28;20037;-74
2023/08/10 05:08:40;;;;;;;6.13;2.00;;;19.20;99.90;;;;;;4988786;28;20023;-74
2023/08/10 05:11:05;;;;;;;5.20;1.80;;;19.30;99.90;;;;;;4986357;28;20030;-74
2023/08/10 05:13:31;;;;;;;5.75;2.00;;;19.40;99.90;;;;;;4986249;28;20109;-74
2023/08/10 05:15:57;;;;;;;4.82;2.10;;;19.40;99.90;;;;;;4991439;28;20030;-74
2023/08/10 05:18:23;;;;;;;7.28;2.17;;;19.30;99.90;;;;;;4986290;28;20041;-74
2023/08/10 05:20:49;;;;;;;4.93;2.28;;;19.40;99.90;;;;;;4989350;28;20030;-74
2023/08/10 05:23:15;;;;;;;4.28;2.35;;;19.40;99.90;;;;;;4985544;28;20088;-73
2023/08/10 05:25:41;;;;;;;9.20;3.38;;;19.40;99.90;;;;;;4993933;28;20041;-73
2023/08/10 05:28:07;;;;;;;6.10;2.30;;;19.50;99.90;;;;;;4988928;28;20048;-74
2023/08/10 05:30:33;;;;;;;6.95;2.25;;;19.50;99.90;;;;;;4989681;28;20026;-74
2023/08/10 05:32:59;;;;;;;5.38;2.35;;;19.50;99.90;;;;;;4987040;28;20031;-74
2023/08/10 05:35:25;;;;;;;5.10;2.70;;;19.50;99.90;;;;;;4988912;28;20045;-75
2023/08/10 05:37:51;;;;;;;5.05;2.20;;;19.50;99.90;;;;;;4990322;28;20351;-74
2023/08/10 05:40:17;;;;;;;5.00;2.38;;;19.50;99.90;;;;;;4983187;28;20030;-74
2023/08/10 05:42:43;;;;;;;5.85;2.03;;;19.50;99.90;;;;;;4991373;28;20037;-74
2023/08/10 05:45:10;;;;;;;5.57;1.90;;;19.50;99.90;;;;;;4986414;28;20092;-74
2023/08/10 05:47:36;;;;;;;4.80;1.90;;;19.50;99.90;;;;;;4985199;28;20030;-74
2023/08/10 05:50:05;;;;;;;4.88;1.90;;;19.70;99.90;;;;;;4997991;28;20042;-74
2023/08/10 05:52:31;;;;;;;5.78;2.10;;;19.70;99.90;;;;;;4990361;28;20030;-75
2023/08/10 05:54:56;;;;;;;5.53;2.00;;;19.80;99.90;;;;;;4981094;28;20784;-73
2023/08/10 05:57:22;;;;;;;7.47;2.00;;;19.90;99.90;;;;;;4985661;28;20084;-74
2023/08/10 05:59:48;;;;;;;11.38;2.58;;;19.90;99.90;;;;;;4986907;28;20038;-73
2023/08/10 06:02:14;;;;;;;5.85;2.75;;;19.80;99.90;;;;;;4982589;28;20571;-74
2023/08/10 06:04:42;;;;;;;29.40;5.03;;;19.90;99.90;;;;;;4985437;28;20038;-74
2023/08/10 06:07:08;;;;;;;13.07;2.58;;;20.10;99.90;;;;;;4986487;28;20038;-74
2023/08/10 06:09:34;;;;;;;7.18;2.60;;;20.00;99.90;;;;;;4984304;28;20141;-73
2023/08/10 06:12:00;;;;;;;14.43;2.53;;;19.90;99.90;;;;;;4985200;28;20026;-74
2023/08/10 06:14:26;;;;;;;7.22;1.80;;;20.10;99.90;;;;;;4986414;28;20030;-74
2023/08/10 06:16:52;;;;;;;6.07;2.58;;;20.10;99.90;;;;;;4988879;28;20109;-74
2023/08/10 06:19:18;;;;;;;5.30;2.50;;;20.30;99.90;;;;;;4985868;28;20041;-73
2023/08/10 06:21:44;;;;;;;9.90;3.15;;;20.30;99.90;;;;;;4984960;28;20040;-74
2023/08/10 06:24:09;;;;;;;5.95;2.53;;;20.30;99.90;;;;;;4992510;28;20354;-74
2023/08/10 06:26:38;;;;;;;4.38;2.47;;;20.40;99.90;;;;;;4986072;28;20137;-75
2023/08/10 06:29:04;;;;;;;6.95;2.42;;;20.50;99.90;;;;;;4991217;28;20041;-74
2023/08/10 06:31:30;;;;;;;5.38;2.65;;;20.40;99.90;;;;;;4985756;28;20093;-73
2023/08/10 06:33:56;;;;;;;5.22;2.15;;;20.20;99.90;;;;;;4984522;28;20105;-74
2023/08/10 06:36:22;;;;;;;4.85;2.53;;;20.30;99.90;;;;;;4987151;28;20520;-74
2023/08/10 06:38:48;;;;;;;12.32;2.67;;;20.20;99.90;;;;;;4991192;28;20112;-74
2023/08/10 06:41:14;;;;;;;6.35;2.78;;;20.30;99.90;;;;;;4987039;28;20030;-74
2023/08/10 06:43:39;;;;;;;6.10;2.78;;;20.20;99.90;;;;;;4991464;28;20644;-74
2023/08/10 06:46:05;;;;;;;5.50;2.17;;;20.30;99.90;;;;;;4984592;28;20057;-74
2023/08/10 06:48:30;;;;;;;7.00;3.13;;;20.50;99.90;;;;;;4994160;28;20388;-74
2023/08/10 06:50:57;;;;;;;4.38;2.75;;;20.60;99.90;;;;;;4984843;28;20101;-74
2023/08/10 06:53:23;;;;;;;10.80;3.45;;;20.70;99.90;;;;;;4990117;28;20040;-74
2023/08/10 06:55:50;;;;;;;6.93;2.67;;;20.90;99.90;;;;;;4984598;28;20030;-75
2023/08/10 06:58:17;;;;;;;5.38;2.80;;;21.10;99.90;;;;;;4993545;28;20383;-75
2023/08/10 07:00:44;;;;;;;7.45;2.95;;;21.20;99.90;;;;;;4997644;28;20037;-75
2023/08/10 07:03:09;;;;;;;8.13;3.03;;;21.50;99.90;;;;;;4989081;28;20125;-75
2023/08/10 07:05:40;;;;;;;7.82;2.45;;;21.90;99.90;;;;;;4997109;28;20117;-74
2023/08/10 07:08:07;;;;;;;5.93;3.15;;;21.80;99.90;;;;;;4994212;28;20064;-74
2023/08/10 07:10:32;;;;;;;9.45;3.25;;;21.90;99.90;;;;;;4995868;28;20435;-74
2023/08/10 07:12:58;;;;;;;5.43;3.22;;;22.50;99.90;;;;;;4994984;28;20034;-74
2023/08/10 07:15:24;;;;;;;4.28;2.65;;;23.00;99.90;;;;;;4992156;28;20026;-75
2023/08/10 07:17:50;;;;;;;5.80;2.40;;;23.50;99.90;;;;;;4986203;28;20133;-74
2023/08/10 07:20:18;;;;;;;4.25;2.20;;;24.30;99.90;;;;;;4987394;28;20046;-74
2023/08/10 07:22:45;;;;;;;5.45;2.53;;;24.00;99.90;;;;;;4986219;28;20042;-73
2023/08/10 07:25:12;;;;;;;6.57;2.58;;;24.00;99.90;;;;;;4986174;28;20034;-74
2023/08/10 07:27:38;;;;;;;4.65;2.80;;;25.50;99.90;;;;;;4987481;28;20032;-75
2023/08/10 07:30:04;;;;;;;4.35;1.88;;;26.70;99.80;;;;;;4988095;28;20189;-74
2023/08/10 07:32:31;;;;;;;3.95;2.10;;;26.40;98.30;;;;;;4988580;28;20034;-74
2023/08/10 07:34:57;;;;;;;5.22;2.10;;;26.90;98.20;;;;;;4986936;28;20570;-74
2023/08/10 07:37:23;;;;;;;6.25;2.80;;;26.40;98.60;;;;;;4987854;28;20461;-74
2023/08/10 07:39:48;;;;;;;5.30;2.28;;;25.00;99.90;;;;;;4988517;28;20836;-74
2023/08/10 07:42:14;;;;;;;4.35;2.00;;;24.70;99.90;;;;;;4995131;28;20048;-74
2023/08/10 07:44:40;;;;;;;7.63;2.40;;;25.90;98.80;;;;;;4992711;28;20588;-75
2023/08/10 07:47:05;;;;;;;4.95;2.17;;;27.10;97.90;;;;;;5000146;28;20029;-74
2023/08/10 07:49:31;;;;;;;5.55;2.10;;;26.20;98.50;;;;;;4993875;28;20026;-74
2023/08/10 07:51:58;;;;;;;10.48;2.15;;;26.40;98.40;;;;;;4994717;28;20042;-74
2023/08/10 07:54:25;;;;;;;6.50;2.53;;;25.50;98.10;;;;;;4986348;28;20130;-73
2023/08/10 07:56:50;;;;;;;5.57;2.20;;;24.30;99.80;;;;;;4990787;28;20045;-74
2023/08/10 07:59:16;;;;;;;4.80;2.17;;;23.60;99.90;;;;;;4989862;28;20133;-74
2023/08/10 08:01:43;;;;;;;3.60;1.90;;;23.30;99.90;;;;;;4987808;28;20074;-74
2023/08/10 08:04:08;;;;;;;6.07;2.53;;;23.20;99.90;;;;;;4987686;28;20097;-74
2023/08/10 08:06:36;;;;;;;3.78;1.80;;;23.00;99.90;;;;;;4993404;28;20522;-74
2023/08/10 08:09:03;;;;;;;5.47;2.58;;;22.90;99.90;;;;;;4988156;28;20743;-74
2023/08/10 08:11:30;;;;;;;4.15;2.20;;;23.00;99.90;;;;;;4987214;28;20485;-73
2023/08/10 08:13:56;;;;;;;3.45;1.67;;;23.10;99.90;;;;;;4993685;28;20038;-74
2023/08/10 08:16:21;;;;;;;4.00;1.90;;;23.00;99.90;;;;;;4991500;28;20108;-74
2023/08/10 08:18:53;;;;;;;7.32;2.28;;;23.10;99.90;;;;;;4995424;28;20124;-74
2023/08/10 08:21:23;;;;;;;6.25;2.03;;;23.20;99.90;;;;;;4991970;28;20416;-73
2023/08/10 08:23:50;;;;;;;3.83;1.63;;;23.30;99.90;;;;;;4993476;28;20401;-74
2023/08/10 08:26:17;;;;;;;3.50;1.90;;;23.90;99.60;;;;;;4999392;28;20042;-75
2023/08/10 08:28:44;;;;;;;4.78;2.25;;;25.90;96.60;;;;;;4995069;28;20112;-74
2023/08/10 08:31:10;;;;;;;5.18;1.60;;;26.40;96.10;;;;;;4992410;28;20026;-74
2023/08/10 08:33:38;;;;;;;4.15;2.00;;;27.30;96.60;;;;;;4984288;28;20038;-74
2023/08/10 08:36:05;;;;;;;4.57;1.98;;;27.20;96.00;;;;;;4987393;28;20022;-74
2023/08/10 08:38:32;;;;;;;3.90;1.60;;;27.80;95.50;;;;;;4988790;28;20053;-75
2023/08/10 08:41:04;;;;;;;3.72;1.58;;;27.80;95.30;;;;;;4985724;28;20080;-74
2023/08/10 08:43:31;;;;;;;3.67;1.48;;;27.60;95.10;;;;;;4988322;28;20042;-77
2023/08/10 08:45:58;;;;;;;7.25;1.65;;;27.30;95.20;;;;;;4998594;28;20528;-75
2023/08/10 08:48:29;;;;;;;4.13;1.63;;;27.00;94.80;;;;;;4984813;28;20038;-75
2023/08/10 08:50:56;;;;;;;4.13;1.45;;;26.60;95.00;;;;;;4990775;28;20027;-74
2023/08/10 08:53:22;;;;;;;4.18;2.08;;;25.90;95.70;;;;;;4986920;28;20022;-74
2023/08/10 08:55:48;;;;;;;5.88;1.98;;;25.20;96.00;;;;;;4986564;28;20129;-74
2023/08/10 08:58:15;;;;;;;4.43;1.80;;;25.50;96.80;;;;;;4988040;28;20041;-75
2023/08/10 09:00:49;;;;;;;3.40;1.42;;;25.30;97.70;;;;;;4984403;28;20034;-75
2023/08/10 09:03:16;;;;;;;5.07;2.22;;;25.20;97.10;;;;;;4984945;28;20118;-74
2023/08/10 09:05:43;;;;;;;13.90;2.33;;;25.00;97.10;;;;;;4987351;28;20044;-74
2023/08/10 09:08:09;;;;;;;3.47;1.65;;;24.70;97.00;;;;;;4996004;28;20026;-74
2023/08/10 09:10:35;;;;;;;5.85;1.63;;;24.80;97.10;;;;;;4990276;28;20029;-74
2023/08/10 09:13:12;;;;;;;4.03;1.80;;;25.10;97.90;;;;;;4992784;28;20028;-75
2023/08/10 09:15:38;;;;;;;4.88;1.73;;;24.90;97.00;;;;;;4984764;28;20455;-74
2023/08/10 09:18:05;;;;;;;3.80;1.67;;;25.10;97.00;;;;;;4998220;28;20100;-74
2023/08/10 09:20:30;;;;;;;6.88;1.88;;;25.40;96.80;;;;;;4992825;28;20034;-74
2023/08/10 09:22:57;;;;;;;5.43;1.88;;;25.00;96.80;;;;;;4992898;28;20124;-73
2023/08/10 09:25:24;;;;;;;6.13;1.88;;;25.20;96.70;;;;;;4990363;28;20129;-73
2023/08/10 09:27:51;;;;;;;4.35;1.65;;;25.30;96.80;;;;;;4992342;28;20069;-73
2023/08/10 09:30:18;;;;;;;4.63;1.63;;;25.40;96.90;;;;;;4990643;28;20018;-73
2023/08/10 09:32:44;;;;;;;4.97;2.15;;;25.60;96.70;;;;;;4984959;28;20035;-73
2023/08/10 09:35:15;;;;;;;3.22;1.90;;;25.40;96.60;;;;;;4993243;28;20029;-73
2023/08/10 09:37:42;;;;;;;3.38;1.50;;;25.60;96.90;;;;;;4991048;28;20097;-73
2023/08/10 09:40:11;;;;;;;7.47;2.25;;;25.70;96.80;;;;;;4988008;28;20041;-73
2023/08/10 09:42:38;;;;;;;4.03;1.95;;;25.90;97.30;;;;;;4992187;28;20034;-73
2023/08/10 09:45:10;;;;;;;3.75;1.63;;;25.90;96.70;;;;;;4992904;28;20388;-74
2023/08/10 09:47:41;;;;;;;6.82;2.13;;;25.90;96.80;;;;;;4984605;28;20053;-73
2023/08/10 09:50:13;;;;;;;4.50;2.55;;;25.90;96.80;;;;;;4990266;28;20058;-74
2023/08/10 09:52:40;;;;;;;6.88;1.90;;;25.70;96.70;;;;;;4994277;28;20026;-73
2023/08/10 09:55:07;;;;;;;4.28;2.00;;;25.60;97.40;;;;;;4988886;28;20018;-73
2023/08/10 09:57:34;;;;;;;5.50;2.10;;;25.70;97.00;;;;;;4987270;28;20057;-73
2023/08/10 10:00:00;;;;;;;4.88;2.30;;;25.80;97.60;;;;;;4987421;28;20049;-73
2023/08/10 10:02:26;;;;;;;4.53;1.60;;;25.90;96.90;;;;;;4992007;28;20038;-74
2023/08/10 10:04:52;;;;;;;7.60;2.05;;;25.90;96.40;;;;;;4984979;28;20031;-73
2023/08/10 10:07:27;;;;;;;5.38;1.95;;;26.00;96.10;;;;;;5001662;28;20447;-73
2023/08/10 10:09:58;;;;;;;5.55;2.00;;;26.20;96.20;;;;;;4984919;28;20026;-73
2023/08/10 10:12:24;;;;;;;6.40;2.55;;;26.40;97.10;;;;;;4985818;28;20515;-73
2023/08/10 10:14:51;;;;;;;6.45;2.88;;;26.60;96.40;;;;;;4991746;28;20086;-73
2023/08/10 10:17:19;;;;;;;8.55;2.40;;;26.50;96.10;;;;;;4989453;28;20026;-73
2023/08/10 10:19:48;;;;;;;4.38;2.55;;;26.90;96.80;;;;;;4990099;28;20061;-73
2023/08/10 10:22:16;;;;;;;4.97;2.33;;;26.60;95.90;;;;;;4988927;28;20031;-73
2023/08/10 10:24:42;;;;;;;6.30;2.35;;;26.50;96.20;;;;;;4991057;28;20026;-74
2023/08/10 10:27:11;;;;;;;4.90;1.80;;;26.80;97.30;;;;;;4988152;28;20366;-73
2023/08/10 10:29:52;;;;;;;4.53;2.20;;;26.90;96.10;;;;;;4991629;28;20423;-74
2023/08/10 10:32:20;;;;;;;4.25;1.80;;;26.50;95.80;;;;;;4988470;28;20105;-74
2023/08/10 10:34:47;;;;;;;4.38;1.95;;;26.80;96.60;;;;;;4988419;28;20595;-74
2023/08/10 10:37:13;;;;;;;3.50;1.90;;;26.90;96.30;;;;;;4989109;28;20070;-74
2023/08/10 10:39:41;;;;;;;3.65;1.90;;;27.10;95.60;;;;;;4987963;28;20062;-74
2023/08/10 10:42:10;;;;;;;13.02;3.00;;;27.30;95.70;;;;;;4994587;28;20034;-74
2023/08/10 10:44:59;;;;;;;6.18;2.60;;;27.30;95.50;;;;;;4987713;28;20034;-74
2023/08/10 10:47:39;;;;;;;4.47;2.22;;;27.20;95.80;;;;;;4984973;28;20031;-73
2023/08/10 10:50:18;;;;;;;6.57;2.13;;;27.40;96.10;;;;;;4985371;28;20031;-73
2023/08/10 10:52:54;;;;;;;5.38;2.10;;;27.30;95.90;;;;;;4986460;28;20054;-73
2023/08/10 10:55:25;;;;;;;4.75;2.15;;;27.30;96.30;;;;;;5001067;28;20360;-73
2023/08/10 10:57:51;;;;;;;3.50;1.77;;;27.10;96.10;;;;;;4985788;28;20034;-73
2023/08/10 11:00:18;;;;;;;6.78;2.30;;;27.10;96.70;;;;;;4988253;28;20038;-73
2023/08/10 11:02:45;;;;;;;4.75;1.95;;;27.50;97.00;;;;;;4994793;28;20034;-73
2023/08/10 11:05:13;;;;;;;4.65;2.03;;;27.80;96.50;;;;;;4983778;28;20444;-73
2023/08/10 11:07:43;;;;;;;5.28;2.08;;;28.00;96.20;;;;;;4991128;28;20523;-73
2023/08/10 11:10:10;;;;;;;6.35;1.80;;;28.10;96.30;;;;;;4997749;28;20057;-73
2023/08/10 11:12:40;;;;;;;5.10;2.20;;;27.80;95.50;;;;;;4986922;28;20026;-74
2023/08/10 11:15:07;;;;;;;6.07;2.22;;;27.40;95.50;;;;;;4987720;28;20034;-74
2023/08/10 11:17:34;;;;;;;3.50;2.10;;;27.70;95.60;;;;;;4989933;28;20030;-75
2023/08/10 11:20:00;;;;;;;3.75;1.67;;;27.70;94.80;;;;;;4989866;28;20495;-74
2023/08/10 11:22:26;;;;;;;5.45;2.00;;;27.90;94.80;;;;;;4990562;28;20049;-72
2023/08/10 11:24:51;;;;;;;8.27;1.98;;;28.10;94.20;;;;;;4993386;28;20535;-72
2023/08/10 11:27:17;;;;;;;4.15;2.00;;;28.30;94.20;;;;;;4991515;28;20109;-71
2023/08/10 11:29:43;;;;;;;7.60;2.40;;;28.10;94.20;;;;;;4987836;28;20596;-72
2023/08/10 11:32:09;;;;;;;4.55;2.13;;;28.40;94.30;;;;;;4989391;28;20030;-72
2023/08/10 11:34:35;;;;;;;4.07;1.90;;;28.50;94.70;;;;;;4987974;28;20035;-72
2023/08/10 11:37:00;;;;;;;4.75;2.03;;;28.20;94.20;;;;;;4990722;28;20056;-72
2023/08/10 11:39:26;;;;;;;5.97;2.03;;;27.70;93.80;;;;;;4986979;28;20034;-72
2023/08/10 11:41:53;;;;;;;4.40;1.98;;;27.90;94.30;;;;;;4986266;28;20026;-72
2023/08/10 11:44:29;;;;;;;5.32;2.22;;;28.40;94.70;;;;;;4989164;28;20042;-72
2023/08/10 11:46:57;;;;;;;7.90;2.03;;;28.50;93.60;;;;;;4991731;28;20069;-72
2023/08/10 11:49:28;;;;;;;3.92;1.65;;;28.80;94.40;;;;;;4984679;28;20093;-72
2023/08/10 11:51:57;;;;;;;4.30;1.90;;;28.80;94.30;;;;;;4987508;28;20038;-72
2023/08/10 11:54:30;;;;;;;6.97;2.30;;;28.90;94.30;;;;;;4985599;28;20022;-72
2023/08/10 11:56:56;;;;;;;5.65;1.88;;;29.20;93.10;;;;;;4989328;28;20038;-73
2023/08/10 11:59:21;;;;;;;4.72;1.95;;;28.90;93.40;;;;;;4984667;28;20591;-72
2023/08/10 12:01:57;;;;;;;5.07;1.80;;;29.00;93.20;;;;;;4988669;28;20062;-72
2023/08/10 12:04:28;;;;;;;3.33;1.73;;;29.20;93.20;;;;;;4990102;28;20034;-73
2023/08/10 12:06:54;;;;;;;4.25;2.17;;;29.10;93.50;;;;;;4995783;28;20045;-73
2023/08/10 12:09:21;;;;;;;5.38;1.67;;;29.10;93.80;;;;;;4985593;28;20350;-72
2023/08/10 12:11:47;;;;;;;7.18;1.98;;;29.20;93.30;;;;;;4986333;28;20030;-72
2023/08/10 12:14:13;;;;;;;4.40;1.98;;;29.20;92.80;;;;;;4985410;28;20034;-72
2023/08/10 12:16:38;;;;;;;3.60;1.77;;;29.20;92.70;;;;;;4986206;28;20654;-73
2023/08/10 12:19:04;;;;;;;5.13;1.95;;;29.00;92.60;;;;;;4992481;28;20030;-72
2023/08/10 12:21:30;;;;;;;5.47;1.90;;;29.10;93.40;;;;;;4994229;28;20487;-73
2023/08/10 12:23:56;;;;;;;7.38;3.25;;;29.30;93.90;;;;;;4989437;28;20084;-73
2023/08/10 12:26:22;;;;;;;8.70;4.97;;;29.40;93.40;;;;;;4985989;28;20026;-73
2023/08/10 12:28:48;;;;;;;6.65;2.30;;;29.10;92.80;;;;;;4990995;28;20037;-72
2023/08/10 12:31:14;;;;;;;5.18;2.13;;;29.00;92.90;;;;;;4987478;28;20030;-72
2023/08/10 12:33:40;;;;;;;3.30;1.58;;;29.20;93.20;;;;;;4999777;28;20113;-73
2023/08/10 12:36:06;;;;;;;3.75;1.70;;;29.20;93.50;;;;;;4989303;28;20022;-72
2023/08/10 12:38:32;;;;;;;4.05;1.48;;;29.20;93.50;;;;;;4993306;28;20642;-73
2023/08/10 12:40:58;;;;;;;8.10;3.08;;;29.20;93.30;;;;;;4997086;28;20048;-73
2023/08/10 12:43:24;;;;;;;4.47;2.03;;;29.20;93.30;;;;;;4989599;28;20034;-73
2023/08/10 12:45:50;;;;;;;8.23;1.95;;;29.20;93.80;;;;;;4986438;28;20536;-72